Time;durP1;ratioP1;P1;durP2;ratioP2;P2;SDS_P1;SDS_P2;PMS_P1;PMS_P2;Temp;Humidity;BMP_temperature;BMP_pressure;BME280_temperature;BME280_humidity;BME280_pressure;Samples;Min_cycle;Max_cycle;Signal;HPM_P1;HPM_P2
2022/05/11 00:00:10;;;;;;;9.45;8.10;;;;;;;19.22;65.93;99529.09;339717;29;1423;-87
2022/05/11 00:00:22;;;;;;;8.90;7.88;;;;;;;19.24;65.91;99527.19;339593;29;1422;-88
2022/05/11 00:00:35;;;;;;;8.80;7.90;;;;;;;19.22;65.88;99523.84;339736;29;1163;-88
2022/05/11 00:00:49;;;;;;;8.95;7.80;;;;;;;19.23;66.36;99525.50;338681;29;863;-88
2022/05/11 00:01:08;;;;;;;8.82;7.85;;;;;;;19.24;66.11;99527.19;338754;29;790;-88
2022/05/11 00:01:21;;;;;;;12.45;8.20;;;;;;;19.25;65.81;99523.59;339462;29;1207;-88
2022/05/11 00:01:35;;;;;;;13.60;8.40;;;;;;;19.26;65.72;99527.94;337338;29;1119;-89
2022/05/11 00:01:47;;;;;;;10.82;8.50;;;;;;;19.25;65.76;99526.22;337422;29;799;-88
2022/05/11 00:02:00;;;;;;;11.07;8.50;;;;;;;19.27;65.66;99519.91;337318;29;996;-88
2022/05/11 00:02:12;;;;;;;10.80;8.10;;;;;;;19.28;65.72;99518.13;336682;29;1059;-89
2022/05/11 00:02:24;;;;;;;11.02;8.02;;;;;;;19.30;65.39;99529.41;335761;29;1662;-88
2022/05/11 00:02:37;;;;;;;10.00;8.40;;;;;;;19.29;65.50;99518.00;337474;29;828;-88
2022/05/11 00:02:49;;;;;;;9.77;8.60;;;;;;;19.28;65.55;99531.31;338407;29;1073;-88
2022/05/11 00:03:02;;;;;;;9.98;8.85;;;;;;;19.29;65.15;99522.44;338730;29;782;-88
2022/05/11 00:03:15;;;;;;;9.15;8.25;;;;;;;19.30;65.20;99529.41;338615;29;1004;-88
2022/05/11 00:03:28;;;;;;;8.90;8.00;;;;;;;19.30;65.37;99526.75;336051;29;846;-88
2022/05/11 00:03:40;;;;;;;9.02;8.13;;;;;;;19.30;65.08;99529.41;336240;29;1474;-88
2022/05/11 00:03:53;;;;;;;8.93;8.02;;;;;;;19.30;65.34;99524.13;339700;29;1784;-88
2022/05/11 00:04:07;;;;;;;9.27;8.20;;;;;;;19.30;65.70;99529.41;338366;29;1080;-88
2022/05/11 00:04:19;;;;;;;11.18;8.57;;;;;;;19.29;65.68;99527.69;338627;29;813;-88
2022/05/11 00:04:31;;;;;;;10.77;8.68;;;;;;;19.28;65.68;99523.41;338583;29;1115;-88
2022/05/11 00:04:43;;;;;;;9.63;8.52;;;;;;;19.29;65.72;99527.69;338150;29;1093;-88
2022/05/11 00:04:55;;;;;;;10.60;8.60;;;;;;;19.28;65.42;99526.03;336972;29;966;-88
2022/05/11 00:05:10;;;;;;;10.85;8.75;;;;;;;19.22;65.41;99531.72;337208;29;1104;-87
2022/05/11 00:05:22;;;;;;;9.70;8.70;;;;;;;19.19;65.61;99531.94;336000;29;941;-87
2022/05/11 00:05:35;;;;;;;10.27;8.35;;;;;;;19.15;65.80;99529.50;337422;29;1116;-87
2022/05/11 00:05:47;;;;;;;11.05;8.38;;;;;;;19.14;65.84;99525.19;335955;29;1242;-88
2022/05/11 00:05:59;;;;;;;10.40;8.57;;;;;;;19.14;65.56;99527.84;335712;29;1695;-88
2022/05/11 00:06:11;;;;;;;11.25;8.45;;;;;;;19.13;65.69;99530.56;336922;29;979;-88
2022/05/11 00:06:25;;;;;;;11.20;8.55;;;;;;;19.21;65.22;99524.75;337530;29;736;-88
2022/05/11 00:06:38;;;;;;;10.75;8.80;;;;;;;19.24;65.34;99535.09;338285;29;1116;-88
2022/05/11 00:06:51;;;;;;;10.40;9.07;;;;;;;19.24;65.27;99525.41;338674;29;782;-88
2022/05/11 00:07:03;;;;;;;10.57;8.68;;;;;;;19.25;65.04;99531.50;337590;29;965;-88
2022/05/11 00:07:15;;;;;;;10.88;8.35;;;;;;;19.24;65.00;99525.41;337965;29;1969;-88
2022/05/11 00:07:27;;;;;;;10.48;8.48;;;;;;;19.24;65.24;99525.41;339216;29;1218;-88
2022/05/11 00:07:39;;;;;;;11.38;8.70;;;;;;;19.22;65.12;99522.03;339859;29;1104;-88
2022/05/11 00:07:51;;;;;;;10.60;8.90;;;;;;;19.23;65.56;99528.97;339763;29;751;-89
2022/05/11 00:08:04;;;;;;;9.88;8.80;;;;;;;19.24;65.24;99530.66;339574;29;1125;-87
2022/05/11 00:08:16;;;;;;;10.15;8.90;;;;;;;19.24;65.57;99524.56;337481;29;780;-87
2022/05/11 00:08:28;;;;;;;12.75;8.95;;;;;;;19.25;65.33;99523.59;337692;29;1184;-88
2022/05/11 00:08:40;;;;;;;12.93;8.95;;;;;;;19.26;65.24;99527.94;336105;29;1041;-87
2022/05/11 00:08:53;;;;;;;11.75;8.93;;;;;;;19.28;65.10;99531.31;335871;29;1029;-88
2022/05/11 00:09:07;;;;;;;11.32;8.90;;;;;;;19.28;65.33;99526.88;339524;29;1541;-88
2022/05/11 00:09:19;;;;;;;11.18;8.90;;;;;;;19.27;65.51;99519.91;340309;29;1292;-88
2022/05/11 00:09:31;;;;;;;11.05;8.68;;;;;;;19.29;64.97;99522.44;339071;29;1595;-88
2022/05/11 00:09:43;;;;;;;10.05;8.40;;;;;;;19.29;64.84;99527.69;339559;29;778;-88
2022/05/11 00:09:55;;;;;;;9.40;8.40;;;;;;;19.29;65.48;99522.44;338758;29;1275;-88
2022/05/11 00:10:12;;;;;;;9.73;8.73;;;;;;;19.28;65.42;99521.59;338705;29;800;-88
2022/05/11 00:10:25;;;;;;;10.60;8.80;;;;;;;19.30;65.30;99524.13;337413;29;970;-87
2022/05/11 00:10:37;;;;;;;10.20;8.50;;;;;;;19.29;65.34;99517.16;336088;29;849;-88
2022/05/11 00:10:49;;;;;;;9.90;8.60;;;;;;;19.29;65.61;99522.44;337085;29;1184;-88
2022/05/11 00:11:04;;;;;;;10.63;8.63;;;;;;;19.28;65.57;99528.66;335422;29;2210;-88
2022/05/11 00:11:16;;;;;;;10.52;8.90;;;;;;;19.28;65.50;99521.59;337380;29;1080;-88
2022/05/11 00:11:29;;;;;;;11.18;9.05;;;;;;;19.30;65.22;99529.41;336937;29;1265;-87
2022/05/11 00:11:42;;;;;;;10.70;8.63;;;;;;;19.28;65.17;99532.13;340036;29;759;-87
2022/05/11 00:11:54;;;;;;;9.40;8.40;;;;;;;19.27;65.00;99524.34;339819;29;778;-88
2022/05/11 00:12:07;;;;;;;10.13;8.85;;;;;;;19.25;65.16;99520.97;338323;29;731;-88
2022/05/11 00:12:19;;;;;;;11.02;9.20;;;;;;;19.22;65.21;99531.72;337124;29;1063;-88
2022/05/11 00:12:31;;;;;;;10.82;8.80;;;;;;;19.20;65.01;99523.94;339012;29;1162;-88
2022/05/11 00:12:45;;;;;;;9.93;8.73;;;;;;;19.21;65.16;99530.88;339941;29;1003;-88
2022/05/11 00:12:58;;;;;;;9.45;8.45;;;;;;;19.20;65.25;99534.47;340070;29;793;-88
2022/05/11 00:13:11;;;;;;;10.13;8.68;;;;;;;19.19;65.40;99526.66;339616;29;1165;-88
2022/05/11 00:13:23;;;;;;;10.10;8.63;;;;;;;19.18;65.20;99530.25;338697;29;1073;-87
2022/05/11 00:13:35;;;;;;;10.45;8.30;;;;;;;19.15;65.01;99528.66;339094;29;985;-88
2022/05/11 00:13:47;;;;;;;12.02;8.45;;;;;;;19.11;65.06;99528.03;337840;29;765;-87
2022/05/11 00:14:00;;;;;;;12.45;8.63;;;;;;;19.13;65.08;99527.94;337088;29;2002;-88
2022/05/11 00:14:13;;;;;;;12.15;8.75;;;;;;;19.10;64.97;99528.16;336272;29;1151;-87
2022/05/11 00:14:25;;;;;;;10.05;8.32;;;;;;;19.08;65.13;99530.91;337616;29;1096;-87
2022/05/11 00:14:37;;;;;;;9.27;8.00;;;;;;;19.09;65.19;99527.31;338525;29;1951;-88
2022/05/11 00:14:50;;;;;;;9.70;8.18;;;;;;;19.10;65.03;99531.63;337353;29;1055;-88
2022/05/11 00:15:02;;;;;;;11.57;8.52;;;;;;;19.07;65.09;99531.84;337395;29;782;-88
2022/05/11 00:15:18;;;;;;;11.10;8.50;;;;;;;19.09;65.11;99526.47;338402;29;1199;-86
2022/05/11 00:15:31;;;;;;;9.27;8.20;;;;;;;19.10;65.00;99531.63;339945;29;1155;-88
2022/05/11 00:15:46;;;;;;;9.70;8.38;;;;;;;19.11;64.87;99530.66;340913;29;1886;-88
2022/05/11 00:16:01;;;;;;;10.27;8.43;;;;;;;19.13;64.88;99525.31;340056;29;854;-88
2022/05/11 00:16:13;;;;;;;10.60;8.30;;;;;;;19.12;64.78;99526.25;339904;29;988;-87
2022/05/11 00:16:27;;;;;;;10.63;8.43;;;;;;;19.13;64.44;99528.75;337017;29;1186;-88
2022/05/11 00:16:40;;;;;;;11.18;8.63;;;;;;;19.12;64.91;99527.09;337326;29;799;-88
2022/05/11 00:16:52;;;;;;;11.10;8.82;;;;;;;19.12;64.86;99529.72;338531;29;1185;-88
2022/05/11 00:17:04;;;;;;;9.95;8.80;;;;;;;19.11;65.00;99528.03;337986;29;1102;-88
2022/05/11 00:17:16;;;;;;;9.70;8.70;;;;;;;19.10;65.57;99526.38;337876;29;1736;-88
2022/05/11 00:17:28;;;;;;;9.85;8.85;;;;;;;19.12;65.10;99527.09;336324;29;1095;-87
2022/05/11 00:17:40;;;;;;;9.65;8.70;;;;;;;19.11;65.08;99524.56;337027;29;1101;-88
2022/05/11 00:17:52;;;;;;;10.18;8.38;;;;;;;19.11;65.11;99520.13;338104;29;1602;-88
2022/05/11 00:18:05;;;;;;;10.80;8.40;;;;;;;19.12;65.00;99527.09;337662;29;1751;-87
2022/05/11 00:18:17;;;;;;;11.20;8.65;;;;;;;19.11;65.23;99530.66;335985;29;985;-88
2022/05/11 00:18:29;;;;;;;10.48;8.90;;;;;;;19.11;65.78;99525.41;335692;29;1811;-88
2022/05/11 00:18:41;;;;;;;10.63;9.02;;;;;;;19.11;65.38;99524.56;335816;29;1584;-86
2022/05/11 00:18:54;;;;;;;10.88;9.35;;;;;;;19.12;65.40;99527.09;336876;29;1213;-88
2022/05/11 00:19:06;;;;;;;10.73;8.95;;;;;;;19.09;65.78;99522.03;338702;29;948;-87
2022/05/11 00:19:20;;;;;;;10.18;8.35;;;;;;;19.08;65.58;99523.00;338661;29;1009;-87
2022/05/11 00:19:32;;;;;;;9.50;8.25;;;;;;;19.11;65.33;99525.41;338127;29;1445;-87
2022/05/11 00:19:44;;;;;;;9.93;8.00;;;;;;;19.10;65.74;99528.16;338748;29;1650;-89
2022/05/11 00:19:56;;;;;;;11.32;8.18;;;;;;;19.10;65.54;99525.53;338712;29;731;-88
2022/05/11 00:20:09;;;;;;;11.32;8.32;;;;;;;19.10;65.65;99523.72;340873;29;1097;-88
2022/05/11 00:20:23;;;;;;;11.73;8.70;;;;;;;19.09;65.56;99524.66;338569;29;1979;-87
2022/05/11 00:20:35;;;;;;;11.18;9.02;;;;;;;19.10;65.74;99526.38;337925;29;1853;-88
2022/05/11 00:20:47;;;;;;;9.85;8.82;;;;;;;19.11;65.48;99525.41;335715;29;1056;-88
2022/05/11 00:20:59;;;;;;;9.77;8.70;;;;;;;19.11;65.35;99522.75;336280;29;1598;-87
2022/05/11 00:21:13;;;;;;;9.75;8.50;;;;;;;19.12;65.32;99535.00;337058;29;2218;-88
2022/05/11 00:21:25;;;;;;;10.80;8.70;;;;;;;19.11;65.14;99529.84;337953;29;1617;-88
2022/05/11 00:21:37;;;;;;;11.23;8.68;;;;;;;19.10;65.10;99528.16;337851;29;886;-88
2022/05/11 00:21:49;;;;;;;11.75;8.68;;;;;;;19.10;65.05;99529.00;337041;29;1089;-88
2022/05/11 00:22:04;;;;;;;12.93;8.90;;;;;;;19.10;64.89;99526.38;338593;29;999;-87
2022/05/11 00:22:16;;;;;;;12.98;9.13;;;;;;;19.09;65.05;99529.94;337068;29;1092;-87
2022/05/11 00:22:28;;;;;;;13.90;8.98;;;;;;;19.09;64.97;99531.72;336761;29;1099;-87
2022/05/11 00:22:40;;;;;;;12.10;8.68;;;;;;;19.06;65.27;99527.53;336186;29;933;-86
2022/05/11 00:22:57;;;;;;;10.75;8.48;;;;;;;18.99;65.57;99531.53;337073;29;1718;-87
2022/05/11 00:23:09;;;;;;;10.55;8.63;;;;;;;18.98;65.84;99529.84;338585;29;1610;-87
2022/05/11 00:23:21;;;;;;;9.93;8.50;;;;;;;18.98;65.43;99532.50;338634;29;846;-87
2022/05/11 00:23:34;;;;;;;10.75;8.38;;;;;;;18.99;65.56;99530.69;335853;29;1249;-89
2022/05/11 00:23:46;;;;;;;9.88;8.23;;;;;;;18.98;65.60;99529.84;338618;29;989;-87
2022/05/11 00:23:58;;;;;;;9.50;8.23;;;;;;;18.96;65.57;99527.31;338854;29;892;-87
2022/05/11 00:24:10;;;;;;;10.80;8.43;;;;;;;18.98;65.41;99529.03;338687;29;752;-87
2022/05/11 00:24:22;;;;;;;11.52;8.70;;;;;;;18.96;65.38;99526.50;338789;29;744;-87
2022/05/11 00:24:35;;;;;;;12.60;9.18;;;;;;;18.96;65.56;99529.13;338604;29;991;-87
2022/05/11 00:24:47;;;;;;;11.20;9.02;;;;;;;18.95;65.28;99524.78;336759;29;2074;-88
2022/05/11 00:25:00;;;;;;;10.77;8.55;;;;;;;18.96;65.63;99527.31;339344;29;1455;-88
2022/05/11 00:25:14;;;;;;;9.90;8.18;;;;;;;18.96;65.23;99529.13;338589;29;1098;-88
2022/05/11 00:25:28;;;;;;;10.85;8.30;;;;;;;18.96;65.39;99526.50;338617;29;1189;-88
2022/05/11 00:25:40;;;;;;;11.00;8.85;;;;;;;18.99;65.24;99531.53;338896;29;809;-87
2022/05/11 00:25:52;;;;;;;10.45;8.77;;;;;;;19.00;65.25;99522.69;335730;29;1184;-87
2022/05/11 00:26:04;;;;;;;9.98;8.98;;;;;;;18.99;65.13;99526.25;336858;29;1057;-87
2022/05/11 00:26:16;;;;;;;9.88;8.88;;;;;;;19.01;65.13;99523.53;336339;29;1240;-86
2022/05/11 00:26:28;;;;;;;10.15;8.88;;;;;;;18.98;65.17;99527.22;335637;29;1096;-87
2022/05/11 00:26:40;;;;;;;10.18;8.95;;;;;;;18.98;65.38;99523.75;334736;29;1089;-87
2022/05/11 00:26:52;;;;;;;10.27;9.05;;;;;;;18.96;65.33;99524.69;336112;29;942;-88
2022/05/11 00:27:04;;;;;;;10.48;8.57;;;;;;;18.98;65.46;99529.84;337398;29;850;-87
2022/05/11 00:27:16;;;;;;;10.50;8.30;;;;;;;18.97;65.69;99522.88;336506;29;1154;-87
2022/05/11 00:27:28;;;;;;;10.35;8.40;;;;;;;18.96;65.79;99521.22;336460;29;1110;-87
2022/05/11 00:27:40;;;;;;;9.82;8.30;;;;;;;18.99;65.37;99530.69;339368;29;997;-87
2022/05/11 00:27:57;;;;;;;10.27;8.63;;;;;;;18.99;65.08;99526.25;339306;29;1614;-88
2022/05/11 00:28:09;;;;;;;11.07;8.65;;;;;;;18.96;65.41;99524.69;340544;29;1596;-87
2022/05/11 00:28:21;;;;;;;10.32;8.38;;;;;;;18.99;65.58;99521.00;340163;29;1162;-86
2022/05/11 00:28:33;;;;;;;9.25;8.25;;;;;;;18.99;65.49;99521.00;340661;29;1314;-87
2022/05/11 00:28:46;;;;;;;9.43;8.35;;;;;;;18.99;65.86;99525.44;339951;29;752;-87
2022/05/11 00:28:58;;;;;;;9.73;8.68;;;;;;;18.99;65.80;99520.16;337718;29;972;-87
2022/05/11 00:29:10;;;;;;;9.52;8.50;;;;;;;19.00;65.81;99524.50;337196;29;1968;-87
2022/05/11 00:29:22;;;;;;;9.82;8.57;;;;;;;18.99;65.75;99521.00;338796;29;1079;-87
2022/05/11 00:29:34;;;;;;;9.85;8.60;;;;;;;19.00;65.86;99522.69;337243;29;1116;-88
2022/05/11 00:29:47;;;;;;;10.05;8.85;;;;;;;19.01;65.71;99520.88;337227;29;1244;-85
2022/05/11 00:29:59;;;;;;;10.80;8.45;;;;;;;19.00;65.76;99527.13;337415;29;787;-88
2022/05/11 00:30:11;;;;;;;11.40;8.50;;;;;;;18.97;65.70;99522.88;338942;29;882;-88
2022/05/11 00:30:25;;;;;;;11.00;8.57;;;;;;;18.96;65.72;99526.50;338645;29;1196;-87
2022/05/11 00:30:37;;;;;;;10.20;8.50;;;;;;;18.96;66.28;99526.50;335687;29;908;-89
2022/05/11 00:30:49;;;;;;;9.23;8.32;;;;;;;18.96;66.03;99521.22;336058;29;1091;-88
2022/05/11 00:31:02;;;;;;;9.35;8.45;;;;;;;18.97;66.10;99517.63;336294;29;1674;-87
2022/05/11 00:31:14;;;;;;;9.57;8.57;;;;;;;18.95;66.31;99519.53;336152;29;1339;-88
2022/05/11 00:31:27;;;;;;;9.90;8.50;;;;;;;18.98;66.56;99519.31;338370;29;1207;-88
2022/05/11 00:31:39;;;;;;;9.88;8.80;;;;;;;18.98;66.22;99521.94;338536;29;1157;-87
2022/05/11 00:31:51;;;;;;;10.10;8.90;;;;;;;18.98;66.38;99524.59;336530;29;1206;-87
2022/05/11 00:32:03;;;;;;;11.90;8.85;;;;;;;18.97;66.23;99520.25;337287;29;985;-87
2022/05/11 00:32:15;;;;;;;11.57;8.23;;;;;;;18.94;66.58;99523.13;338256;29;1385;-88
2022/05/11 00:32:28;;;;;;;9.88;8.18;;;;;;;18.93;66.63;99516.16;339554;29;934;-88
2022/05/11 00:32:40;;;;;;;10.80;8.60;;;;;;;18.92;66.82;99525.84;338630;29;779;-88
2022/05/11 00:32:53;;;;;;;10.90;8.68;;;;;;;18.91;67.07;99518.91;340464;29;1113;-88
2022/05/11 00:33:10;;;;;;;10.85;8.95;;;;;;;18.90;66.50;99517.22;338355;29;1532;-88
2022/05/11 00:33:22;;;;;;;11.70;8.98;;;;;;;18.92;66.44;99519.75;338545;29;984;-87
2022/05/11 00:33:35;;;;;;;11.55;9.02;;;;;;;18.91;66.43;99524.19;336739;29;1169;-89
2022/05/11 00:33:47;;;;;;;10.45;8.65;;;;;;;18.93;65.97;99521.41;336892;29;1306;-88
2022/05/11 00:33:59;;;;;;;10.35;8.60;;;;;;;18.94;65.94;99517.84;336700;29;1637;-89
2022/05/11 00:34:11;;;;;;;10.40;8.63;;;;;;;18.94;66.30;99517.84;337323;29;958;-88
2022/05/11 00:34:23;;;;;;;10.32;8.70;;;;;;;18.93;66.17;99519.66;337261;29;945;-88
2022/05/11 00:34:35;;;;;;;9.75;8.55;;;;;;;18.94;65.97;99517.84;335111;29;1824;-89
2022/05/11 00:34:47;;;;;;;9.07;8.10;;;;;;;18.92;66.37;99514.47;336957;29;741;-88
2022/05/11 00:34:59;;;;;;;9.07;8.10;;;;;;;18.94;66.02;99523.13;336588;29;960;-88
2022/05/11 00:35:11;;;;;;;9.57;8.48;;;;;;;18.92;66.11;99517.94;337265;29;740;-86
2022/05/11 00:35:25;;;;;;;11.18;8.93;;;;;;;18.94;65.86;99517.84;336961;29;1165;-88
2022/05/11 00:35:37;;;;;;;11.73;8.77;;;;;;;18.93;65.83;99521.41;340558;29;785;-87
2022/05/11 00:35:51;;;;;;;11.18;8.50;;;;;;;18.93;65.62;99522.28;339798;29;1188;-88
2022/05/11 00:36:07;;;;;;;10.43;8.35;;;;;;;18.93;65.57;99522.28;340019;29;809;-87
2022/05/11 00:36:19;;;;;;;11.23;8.50;;;;;;;18.92;65.32;99520.59;338619;29;1028;-88
2022/05/11 00:36:31;;;;;;;12.10;9.10;;;;;;;18.91;65.45;99518.03;336911;29;1055;-87
2022/05/11 00:36:43;;;;;;;10.40;8.65;;;;;;;18.91;66.05;99524.19;337503;29;1203;-87
2022/05/11 00:36:57;;;;;;;10.15;8.70;;;;;;;18.88;66.33;99513.00;336243;29;1683;-88
2022/05/11 00:37:10;;;;;;;9.82;8.30;;;;;;;18.76;66.96;99520.75;337071;29;1584;-87
2022/05/11 00:37:22;;;;;;;10.65;8.80;;;;;;;18.72;67.24;99519.28;337284;29;894;-88
2022/05/11 00:37:34;;;;;;;10.43;8.80;;;;;;;18.71;67.27;99516.75;337271;29;1094;-88
2022/05/11 00:37:46;;;;;;;10.63;8.88;;;;;;;18.67;67.54;99516.16;337775;29;1244;-88
2022/05/11 00:37:59;;;;;;;11.57;8.70;;;;;;;18.67;67.11;99521.41;337082;29;1553;-87
2022/05/11 00:38:11;;;;;;;12.18;8.65;;;;;;;18.68;66.82;99520.44;339060;29;1489;-88
2022/05/11 00:38:26;;;;;;;11.20;8.73;;;;;;;18.66;66.90;99524.97;339891;29;856;-88
2022/05/11 00:38:40;;;;;;;10.90;8.27;;;;;;;18.67;66.54;99521.41;338681;29;825;-88
2022/05/11 00:38:52;;;;;;;10.13;7.82;;;;;;;18.67;66.61;99521.41;336011;29;985;-87
2022/05/11 00:39:04;;;;;;;9.38;7.65;;;;;;;18.68;66.48;99517.81;336109;29;737;-87
2022/05/11 00:39:16;;;;;;;8.95;8.05;;;;;;;18.68;66.59;99516.97;338621;29;866;-88
2022/05/11 00:39:28;;;;;;;9.30;8.30;;;;;;;18.67;66.29;99521.41;339116;29;1048;-88
2022/05/11 00:39:40;;;;;;;10.05;8.32;;;;;;;18.68;66.36;99527.50;338641;29;741;-88
2022/05/11 00:39:52;;;;;;;11.02;8.02;;;;;;;18.65;66.94;99518.03;337297;29;1040;-88
2022/05/11 00:40:05;;;;;;;11.98;8.18;;;;;;;18.66;66.79;99519.72;338143;29;1489;-88
2022/05/11 00:40:19;;;;;;;10.68;8.30;;;;;;;18.66;66.87;99517.06;336368;29;2049;-89
2022/05/11 00:40:33;;;;;;;10.10;8.68;;;;;;;18.66;67.02;99519.72;334189;29;1591;-88
2022/05/11 00:40:51;;;;;;;10.07;8.90;;;;;;;18.63;67.34;99514.63;337631;29;1394;-88
2022/05/11 00:41:05;;;;;;;9.23;8.30;;;;;;;18.63;67.43;99517.28;336306;29;863;-88
2022/05/11 00:41:42;;;;;;;9.65;8.20;;;;;;;18.65;67.43;99517.19;337043;29;1573;-87
2022/05/11 00:41:59;;;;;;;12.35;8.45;;;;;;;18.64;67.13;99518.97;333696;29;882;-87
2022/05/11 00:42:11;;;;;;;11.50;8.43;;;;;;;18.64;67.04;99516.34;337859;29;1646;-88
2022/05/11 00:42:23;;;;;;;9.35;8.00;;;;;;;18.63;66.90;99519.91;336590;29;1912;-88
2022/05/11 00:42:39;;;;;;;8.73;7.80;;;;;;;18.64;66.81;99513.72;334540;29;1858;-89
2022/05/11 00:43:29;;;;;;;9.90;8.15;;;;;;;18.62;67.39;99512.97;335965;29;980;-91
2022/05/11 00:43:55;;;;;;;10.57;9.00;;;;;;;18.61;67.37;99516.53;338474;29;1322;-88
2022/05/11 00:44:09;;;;;;;9.20;8.30;;;;;;;18.62;67.43;99518.22;338644;29;879;-88
2022/05/11 00:44:21;;;;;;;9.93;8.63;;;;;;;18.63;67.47;99516.44;339870;29;832;-88
2022/05/11 00:44:34;;;;;;;10.75;8.75;;;;;;;18.63;67.62;99513.81;339611;29;1297;-88
2022/05/11 00:44:46;;;;;;;10.68;8.60;;;;;;;18.63;67.76;99509.38;340657;29;889;-88
2022/05/11 00:44:58;;;;;;;9.77;8.40;;;;;;;18.62;67.62;99512.13;338482;29;969;-88
2022/05/11 00:45:11;;;;;;;9.27;8.27;;;;;;;18.62;67.41;99502.44;339783;29;790;-87
2022/05/11 00:45:23;;;;;;;9.35;8.10;;;;;;;18.60;67.70;99509.59;338129;29;1212;-88
2022/05/11 00:45:39;;;;;;;9.52;7.90;;;;;;;18.61;67.81;99513.91;338482;29;1074;-88
2022/05/11 00:45:51;;;;;;;9.50;7.95;;;;;;;18.61;67.46;99510.44;338520;29;1087;-89
2022/05/11 00:46:07;;;;;;;9.70;8.55;;;;;;;18.61;67.34;99511.28;339172;29;1068;-88
2022/05/11 00:46:35;;;;;;;10.18;8.95;;;;;;;18.63;67.17;99508.53;338667;29;1126;-88
2022/05/11 00:47:01;;;;;;;10.38;8.70;;;;;;;18.62;66.81;99510.34;337134;29;966;-88
2022/05/11 00:47:13;;;;;;;9.88;8.48;;;;;;;18.60;66.94;99504.34;338649;29;855;-88
2022/05/11 00:47:38;;;;;;;10.75;8.45;;;;;;;18.61;66.83;99511.28;338597;29;831;-89
2022/05/11 00:47:58;;;;;;;10.70;8.93;;;;;;;18.59;67.40;99507.91;337307;29;988;-88
2022/05/11 00:49:38;;;;;;;10.80;8.52;;;;;;;18.54;68.12;99512.66;337602;29;1056;-88
2022/05/11 00:49:59;;;;;;;12.77;8.88;;;;;;;18.54;67.65;99510.03;338888;29;972;-88
2022/05/11 00:50:17;;;;;;;10.38;9.02;;;;;;;18.55;67.47;99506.41;340840;29;984;-88
2022/05/11 00:50:34;;;;;;;9.70;8.70;;;;;;;18.55;67.27;99506.41;341261;29;865;-88
2022/05/11 00:50:46;;;;;;;9.40;8.40;;;;;;;18.66;67.19;99514.44;339950;29;863;-88
2022/05/11 00:50:58;;;;;;;9.95;8.95;;;;;;;18.66;67.32;99501.28;338134;29;1182;-88
2022/05/11 00:51:12;;;;;;;10.52;9.13;;;;;;;18.66;67.81;99503.91;337385;29;767;-88
2022/05/11 00:51:32;;;;;;;12.18;8.95;;;;;;;18.67;67.34;99502.13;338154;29;890;-88
2022/05/11 00:51:49;;;;;;;12.43;9.00;;;;;;;18.67;67.43;99507.38;338583;29;929;-89
2022/05/11 00:52:19;;;;;;;10.80;8.32;;;;;;;18.69;67.37;99508.13;338126;29;984;-88
2022/05/11 00:52:42;;;;;;;9.95;8.65;;;;;;;18.70;67.16;99510.66;337361;29;861;-89
2022/05/11 00:53:00;;;;;;;10.38;8.60;;;;;;;18.71;67.26;99512.34;338530;29;984;-88
2022/05/11 00:53:12;;;;;;;10.23;8.48;;;;;;;18.72;67.42;99506.13;339713;29;963;-88
2022/05/11 00:53:25;;;;;;;10.05;8.43;;;;;;;18.71;67.49;99507.09;339873;29;892;-89
2022/05/11 00:53:41;;;;;;;9.43;8.43;;;;;;;18.73;67.61;99504.31;338551;29;954;-88
2022/05/11 00:53:54;;;;;;;9.60;8.60;;;;;;;18.72;67.36;99508.75;338159;29;1060;-88
2022/05/11 00:54:07;;;;;;;9.55;8.55;;;;;;;18.74;67.22;99506.84;339687;29;784;-88
2022/05/11 00:54:21;;;;;;;10.20;8.70;;;;;;;18.75;66.75;99507.69;339870;29;1073;-88
2022/05/11 00:54:40;;;;;;;10.35;8.63;;;;;;;18.76;66.90;99504.97;340093;29;1022;-89
2022/05/11 00:55:00;;;;;;;11.88;8.77;;;;;;;18.75;66.73;99503.28;339508;29;1026;-88
2022/05/11 00:55:17;;;;;;;11.52;8.25;;;;;;;18.75;66.63;99505.06;341101;29;982;-88
2022/05/11 00:55:31;;;;;;;9.52;8.25;;;;;;;18.75;66.81;99502.44;340582;29;988;-89
2022/05/11 00:55:56;;;;;;;9.93;8.52;;;;;;;18.73;66.53;99499.94;341186;29;808;-88
2022/05/11 00:56:08;;;;;;;11.65;8.77;;;;;;;18.74;66.66;99506.84;342171;29;1085;-88
2022/05/11 00:56:23;;;;;;;11.57;8.80;;;;;;;18.72;66.50;99508.75;341173;29;1152;-88
2022/05/11 00:56:39;;;;;;;10.10;8.85;;;;;;;18.73;66.77;99499.94;340736;29;885;-89
2022/05/11 00:56:56;;;;;;;9.90;8.77;;;;;;;18.71;67.41;99496.56;338682;29;888;-88
2022/05/11 00:57:18;;;;;;;11.30;8.68;;;;;;;18.69;67.54;99503.72;338932;29;868;-88
2022/05/11 00:58:11;;;;;;;9.73;8.40;;;;;;;18.66;67.96;99498.66;339916;29;957;-88
2022/05/11 00:58:30;;;;;;;12.13;8.75;;;;;;;18.69;67.20;99506.34;335461;29;1232;-88
2022/05/11 00:58:49;;;;;;;11.20;8.40;;;;;;;18.69;67.13;99497.59;340215;29;878;-89
2022/05/11 00:59:16;;;;;;;11.13;8.60;;;;;;;18.69;66.93;99503.72;341598;29;864;-88
2022/05/11 00:59:36;;;;;;;9.85;8.40;;;;;;;18.68;67.20;99507.28;342261;28;854;-88
2022/05/11 00:59:52;;;;;;;10.15;8.77;;;;;;;18.68;67.73;99501.19;340251;29;1059;-88
2022/05/11 01:00:10;;;;;;;10.30;8.98;;;;;;;18.68;67.62;99503.81;340046;29;1124;-88
2022/05/11 01:00:24;;;;;;;10.18;8.90;;;;;;;18.68;67.69;99502.00;338625;29;1123;-88
2022/05/11 01:00:36;;;;;;;10.32;9.25;;;;;;;18.67;67.57;99502.97;337192;29;1257;-88
2022/05/11 01:00:48;;;;;;;10.45;9.30;;;;;;;18.66;67.99;99498.66;335977;29;992;-88
2022/05/11 01:01:01;;;;;;;11.00;9.25;;;;;;;18.63;68.26;99496.22;336072;29;753;-88
2022/05/11 01:01:14;;;;;;;10.02;8.93;;;;;;;18.64;67.72;99497.91;338571;29;1169;-88
2022/05/11 01:01:26;;;;;;;9.70;8.70;;;;;;;18.65;67.90;99496.13;338712;29;892;-88
2022/05/11 01:01:40;;;;;;;11.68;8.73;;;;;;;18.65;67.59;99493.47;338684;29;980;-88
2022/05/11 01:01:53;;;;;;;11.98;8.68;;;;;;;18.66;67.41;99498.66;339497;29;901;-88
2022/05/11 01:02:06;;;;;;;11.00;8.50;;;;;;;18.65;67.48;99496.97;339833;29;740;-88
2022/05/11 01:02:21;;;;;;;10.80;8.32;;;;;;;18.67;67.23;99494.22;339409;29;1064;-88
2022/05/11 01:02:33;;;;;;;10.70;8.45;;;;;;;18.66;66.99;99495.19;338188;29;945;-88
2022/05/11 01:02:51;;;;;;;10.35;8.70;;;;;;;18.67;66.93;99502.13;339748;29;1103;-89
2022/05/11 01:03:22;;;;;;;9.70;8.40;;;;;;;18.68;67.07;99502.00;339840;29;876;-88
2022/05/11 01:03:42;;;;;;;11.20;8.65;;;;;;;18.66;67.16;99493.38;339633;29;883;-89
2022/05/11 01:04:03;;;;;;;10.07;8.75;;;;;;;18.66;67.45;99503.91;339782;29;1053;-89
2022/05/11 01:04:18;;;;;;;9.60;8.40;;;;;;;18.66;67.83;99503.09;339835;29;875;-89
2022/05/11 01:04:34;;;;;;;10.00;8.40;;;;;;;18.67;67.51;99499.47;339219;29;1057;-89
2022/05/11 01:04:53;;;;;;;10.35;8.82;;;;;;;18.65;67.52;99496.97;337325;29;1043;-88
2022/05/11 01:05:09;;;;;;;10.55;8.57;;;;;;;18.66;67.56;99496.00;337081;29;961;-89
2022/05/11 01:05:22;;;;;;;10.55;8.30;;;;;;;18.66;67.79;99496.00;338747;29;768;-89
2022/05/11 01:05:34;;;;;;;10.73;8.68;;;;;;;18.67;67.85;99500.34;338915;29;740;-89
2022/05/11 01:05:46;;;;;;;10.98;8.82;;;;;;;18.68;67.51;99495.91;339543;29;883;-89
2022/05/11 01:05:59;;;;;;;10.85;8.98;;;;;;;18.66;67.34;99498.66;338336;29;1119;-88
2022/05/11 01:06:12;;;;;;;10.30;8.98;;;;;;;18.67;67.46;99492.44;340028;29;736;-88
2022/05/11 01:06:25;;;;;;;10.00;9.00;;;;;;;18.68;67.34;99499.38;339877;29;1117;-89
2022/05/11 01:06:38;;;;;;;11.30;9.32;;;;;;;18.67;67.07;99500.34;339551;29;1145;-89
2022/05/11 01:06:50;;;;;;;11.88;9.20;;;;;;;18.69;67.10;99493.19;337242;29;784;-88
2022/05/11 01:07:02;;;;;;;10.98;8.95;;;;;;;18.69;67.25;99501.09;337334;29;955;-88
2022/05/11 01:07:14;;;;;;;9.93;8.88;;;;;;;18.65;67.54;99496.97;338353;29;1062;-88
2022/05/11 01:07:28;;;;;;;9.88;8.88;;;;;;;18.67;67.65;99499.47;338493;29;918;-89
2022/05/11 01:07:40;;;;;;;10.43;9.05;;;;;;;18.65;67.65;99496.97;336935;29;1068;-89
2022/05/11 01:07:55;;;;;;;12.88;9.25;;;;;;;18.66;67.93;99497.81;337070;29;1144;-89
2022/05/11 01:08:07;;;;;;;13.23;9.38;;;;;;;18.65;67.68;99491.72;338149;29;954;-88
2022/05/11 01:08:21;;;;;;;11.13;9.02;;;;;;;18.65;67.17;99504.00;338584;29;1071;-88
2022/05/11 01:08:33;;;;;;;11.48;8.75;;;;;;;18.66;67.50;99498.66;339885;29;758;-88
2022/05/11 01:08:45;;;;;;;12.07;8.75;;;;;;;18.66;67.37;99498.66;337191;29;787;-88
2022/05/11 01:09:03;;;;;;;11.77;8.82;;;;;;;18.66;67.25;99497.81;338680;29;755;-88
2022/05/11 01:09:15;;;;;;;12.13;9.07;;;;;;;18.66;67.25;99496.00;337272;29;918;-89